createdAt,value
2023-08-12T00:01:45.427Z,15.30
2023-08-12T00:04:48.869Z,15.40
2023-08-12T00:07:53.149Z,15.00
2023-08-12T00:10:56.935Z,13.60
2023-08-12T00:13:59.962Z,14.80
2023-08-12T00:17:03.793Z,13.10
2023-08-12T00:20:08.020Z,13.70
2023-08-12T00:23:10.988Z,13.20
2023-08-12T00:26:14.463Z,12.80
2023-08-12T00:29:17.467Z,13.30
2023-08-12T00:32:20.413Z,12.20
2023-08-12T00:35:23.369Z,12.50
2023-08-12T00:38:26.410Z,12.00
2023-08-12T00:41:29.299Z,11.90
2023-08-12T00:44:32.288Z,12.30
2023-08-12T00:47:35.252Z,13.00
2023-08-12T00:50:38.753Z,12.70
2023-08-12T00:53:42.042Z,13.00
2023-08-12T00:56:46.114Z,12.50
2023-08-12T00:59:50.350Z,11.90
2023-08-12T01:02:55.167Z,11.90
2023-08-12T01:05:58.357Z,11.70
2023-08-12T01:09:02.773Z,12.10
2023-08-12T01:12:18.115Z,12.00
2023-08-12T01:15:24.946Z,12.20
2023-08-12T01:18:28.879Z,12.40
2023-08-12T01:21:33.651Z,12.20
2023-08-12T01:24:39.471Z,10.90
2023-08-12T01:27:42.441Z,10.90
2023-08-12T01:31:08.636Z,10.80
2023-08-12T01:34:21.684Z,9.80
2023-08-12T01:37:28.144Z,10.10
2023-08-12T01:40:33.661Z,9.90
2023-08-12T01:43:37.000Z,10.10
2023-08-12T01:46:40.054Z,9.30
2023-08-12T01:49:43.003Z,9.60
2023-08-12T01:52:46.015Z,9.10
2023-08-12T01:55:51.121Z,9.60
2023-08-12T01:58:54.139Z,9.30
2023-08-12T02:01:57.097Z,9.50
2023-08-12T02:05:00.167Z,9.30
2023-08-12T02:08:03.369Z,9.90
2023-08-12T02:11:06.398Z,9.10
2023-08-12T02:14:09.525Z,8.50
2023-08-12T02:17:12.836Z,8.40
2023-08-12T02:20:16.276Z,8.10
2023-08-12T02:23:19.283Z,7.60
2023-08-12T02:26:22.248Z,7.80
2023-08-12T02:29:25.282Z,7.50
2023-08-12T02:32:28.417Z,7.80
2023-08-12T02:35:31.453Z,8.40
2023-08-12T02:38:34.485Z,8.40
2023-08-12T02:41:37.448Z,8.60
2023-08-12T02:44:40.397Z,7.90
2023-08-12T02:47:43.434Z,7.70
2023-08-12T02:50:46.440Z,7.70
2023-08-12T02:53:49.418Z,7.00
2023-08-12T02:56:52.345Z,6.70
2023-08-12T02:59:55.419Z,6.50
2023-08-12T03:02:58.530Z,6.10
2023-08-12T03:06:01.717Z,6.40
2023-08-12T03:09:05.486Z,6.60
2023-08-12T03:12:08.843Z,5.90
2023-08-12T03:15:12.172Z,5.10
2023-08-12T03:18:15.216Z,5.40
2023-08-12T03:21:18.231Z,5.20
2023-08-12T03:24:21.310Z,5.60
2023-08-12T03:27:24.510Z,4.90
2023-08-12T03:30:27.978Z,5.70
2023-08-12T03:33:33.024Z,4.70
2023-08-12T03:36:36.432Z,5.40
2023-08-12T03:39:40.123Z,5.20
2023-08-12T03:42:43.156Z,4.70
2023-08-12T03:45:46.632Z,5.10
2023-08-12T03:48:51.259Z,4.70
2023-08-12T03:51:54.570Z,4.90
2023-08-12T03:54:57.957Z,6.10
2023-08-12T03:58:02.205Z,6.10
2023-08-12T04:01:05.649Z,5.60
2023-08-12T04:04:10.392Z,5.80
2023-08-12T04:07:14.929Z,6.00
2023-08-12T04:10:18.404Z,5.70
2023-08-12T04:13:21.753Z,5.80
2023-08-12T04:16:24.824Z,6.90
2023-08-12T04:19:27.874Z,7.70
2023-08-12T04:22:30.827Z,6.50
2023-08-12T04:25:33.767Z,6.80
2023-08-12T04:28:38.333Z,7.50
2023-08-12T04:31:42.475Z,6.70
2023-08-12T04:34:46.954Z,7.80
2023-08-12T04:37:50.559Z,7.70
2023-08-12T04:40:55.939Z,7.40
2023-08-12T04:43:59.439Z,8.20
2023-08-12T04:47:04.168Z,8.20
2023-08-12T04:50:07.942Z,8.60
2023-08-12T04:53:11.244Z,8.50
2023-08-12T04:56:14.494Z,8.90
2023-08-12T04:59:17.522Z,8.30
2023-08-12T05:02:21.784Z,8.20
2023-08-12T05:05:27.198Z,7.00
2023-08-12T05:08:30.229Z,7.40
2023-08-12T05:11:33.306Z,6.40
2023-08-12T05:14:36.410Z,6.20
2023-08-12T05:17:39.408Z,6.20
2023-08-12T05:20:46.710Z,6.50
2023-08-12T05:23:50.454Z,6.80
2023-08-12T05:26:53.492Z,8.50
2023-08-12T05:29:56.475Z,9.30
2023-08-12T05:32:59.490Z,9.70
2023-08-12T05:36:03.942Z,10.30
2023-08-12T05:39:11.103Z,11.00
2023-08-12T05:42:14.409Z,11.10
2023-08-12T05:45:17.500Z,11.30
2023-08-12T05:48:20.392Z,11.20
2023-08-12T05:51:23.396Z,10.80
2023-08-12T05:54:26.318Z,10.80
2023-08-12T05:57:29.935Z,10.30
2023-08-12T06:00:33.158Z,8.80
2023-08-12T06:03:36.197Z,9.20
2023-08-12T06:06:39.509Z,9.10
2023-08-12T06:09:42.540Z,9.10
2023-08-12T06:12:45.473Z,9.80
2023-08-12T06:15:48.471Z,9.90
2023-08-12T06:18:51.402Z,9.50
2023-08-12T06:21:54.426Z,7.90
2023-08-12T06:24:57.326Z,8.50
2023-08-12T06:28:00.390Z,9.50
2023-08-12T06:31:03.477Z,11.40
2023-08-12T06:34:06.526Z,12.00
2023-08-12T06:37:09.771Z,14.20
2023-08-12T06:40:12.710Z,16.20
2023-08-12T06:43:15.591Z,13.60
2023-08-12T06:46:18.664Z,13.10
2023-08-12T06:49:21.654Z,13.40
2023-08-12T06:52:24.946Z,11.50
2023-08-12T06:55:27.953Z,9.40
2023-08-12T06:58:30.875Z,10.10
2023-08-12T07:01:33.878Z,10.60
2023-08-12T07:04:36.987Z,8.20
2023-08-12T07:07:40.278Z,8.40
2023-08-12T07:10:44.652Z,8.00
2023-08-12T07:13:47.675Z,8.00
2023-08-12T07:16:50.723Z,8.10
2023-08-12T07:19:53.825Z,7.60
2023-08-12T07:22:57.136Z,6.90
2023-08-12T07:26:00.115Z,7.20
2023-08-12T07:29:03.130Z,6.60
2023-08-12T07:32:06.331Z,6.20
2023-08-12T07:35:09.837Z,4.70
2023-08-12T07:38:13.258Z,3.40
2023-08-12T07:41:16.236Z,3.10
2023-08-12T07:44:19.266Z,3.90
2023-08-12T07:47:22.268Z,3.10
2023-08-12T07:50:25.300Z,3.40
2023-08-12T07:53:28.215Z,3.40
2023-08-12T07:56:31.235Z,3.50
2023-08-12T07:59:34.289Z,3.70
2023-08-12T08:02:37.299Z,3.40
2023-08-12T08:05:43.591Z,3.30
2023-08-12T08:08:46.704Z,3.70
2023-08-12T08:11:49.809Z,2.70
2023-08-12T08:14:53.070Z,2.70
2023-08-12T08:17:56.151Z,3.20
2023-08-12T08:21:05.638Z,3.00
2023-08-12T08:24:09.834Z,2.90
2023-08-12T08:27:14.396Z,2.90
2023-08-12T08:30:17.612Z,2.50
2023-08-12T08:36:24.180Z,3.10
2023-08-12T08:39:27.576Z,2.90
2023-08-12T08:42:30.779Z,2.90
2023-08-12T08:45:34.868Z,3.30
2023-08-12T08:48:39.316Z,2.40
2023-08-12T08:51:43.886Z,3.10
2023-08-12T08:54:46.922Z,2.00
2023-08-12T08:57:51.154Z,2.30
2023-08-12T09:00:54.230Z,2.30
2023-08-12T09:03:58.695Z,2.40
2023-08-12T09:07:02.519Z,2.10
2023-08-12T09:10:06.503Z,2.70
2023-08-12T09:13:10.481Z,2.00
2023-08-12T09:16:13.894Z,1.70
2023-08-12T09:19:16.880Z,2.00
2023-08-12T09:22:19.940Z,1.80
2023-08-12T09:25:22.896Z,1.80
2023-08-12T09:28:25.926Z,1.90
2023-08-12T09:31:31.077Z,2.00
2023-08-12T09:34:34.325Z,1.80
2023-08-12T09:37:37.301Z,2.20
2023-08-12T09:40:41.071Z,2.20
2023-08-12T09:43:44.773Z,2.00
2023-08-12T09:46:47.691Z,1.90
2023-08-12T09:49:51.166Z,1.80
2023-08-12T09:52:56.142Z,2.00
2023-08-12T09:56:06.458Z,2.00
2023-08-12T09:59:11.508Z,2.30
2023-08-12T10:02:19.657Z,1.90
2023-08-12T10:05:27.641Z,2.20
2023-08-12T10:08:31.010Z,1.70
2023-08-12T10:11:34.015Z,1.80
2023-08-12T10:14:37.201Z,2.00
2023-08-12T10:17:44.010Z,2.00
2023-08-12T10:20:49.194Z,2.00
2023-08-12T10:23:53.738Z,1.70
2023-08-12T10:26:56.845Z,1.70
2023-08-12T10:30:00.354Z,1.70
2023-08-12T10:33:04.413Z,1.60
2023-08-12T10:36:08.641Z,1.70
2023-08-12T10:39:11.732Z,1.90
2023-08-12T10:42:15.192Z,1.60
2023-08-12T10:45:19.374Z,1.60
2023-08-12T10:48:25.034Z,1.60
2023-08-12T10:51:54.772Z,1.90
2023-08-12T10:55:20.977Z,1.70
2023-08-12T10:58:41.946Z,2.00
2023-08-12T11:01:45.695Z,1.60
2023-08-12T11:05:01.974Z,2.40
2023-08-12T11:08:07.347Z,1.80
2023-08-12T11:11:21.301Z,1.40
2023-08-12T11:14:24.979Z,1.90
2023-08-12T11:17:38.336Z,1.90
2023-08-12T11:20:42.056Z,1.50
2023-08-12T11:23:45.792Z,1.60
2023-08-12T11:26:50.263Z,1.60
2023-08-12T11:29:53.356Z,1.90
2023-08-12T11:32:57.116Z,2.00
2023-08-12T11:36:00.230Z,2.00
2023-08-12T11:39:03.909Z,2.00
2023-08-12T11:42:06.880Z,1.90
2023-08-12T11:45:10.655Z,1.80
2023-08-12T11:48:13.970Z,1.90
2023-08-12T11:51:17.479Z,1.80
2023-08-12T11:54:21.471Z,1.70
2023-08-12T11:57:24.883Z,2.00
2023-08-12T12:00:28.244Z,1.70
2023-08-12T12:03:31.364Z,1.60
2023-08-12T12:06:37.973Z,1.80
2023-08-12T12:09:45.222Z,1.80
2023-08-12T12:12:48.292Z,1.90
2023-08-12T12:15:51.201Z,1.90
2023-08-12T12:19:00.299Z,1.80
2023-08-12T12:22:09.182Z,1.70
2023-08-12T12:25:14.406Z,2.00
2023-08-12T12:28:17.398Z,2.00
2023-08-12T12:31:23.060Z,1.60
2023-08-12T12:34:26.075Z,2.00
2023-08-12T12:37:29.248Z,1.60
2023-08-12T12:40:32.654Z,1.60
2023-08-12T12:43:35.966Z,1.90
2023-08-12T12:46:39.344Z,1.50
2023-08-12T12:49:45.307Z,2.30
2023-08-12T12:52:48.518Z,1.50
2023-08-12T12:55:51.898Z,1.80
2023-08-12T12:58:55.516Z,2.00
2023-08-12T13:01:59.215Z,1.80
2023-08-12T13:05:02.492Z,1.80
2023-08-12T13:08:07.367Z,2.00
2023-08-12T13:11:11.105Z,1.90
2023-08-12T13:14:14.149Z,1.80
2023-08-12T13:17:17.500Z,1.70
2023-08-12T13:20:22.035Z,1.90
2023-08-12T13:23:24.997Z,1.60
2023-08-12T13:26:28.118Z,1.80
2023-08-12T13:29:32.102Z,1.70
2023-08-12T13:32:35.141Z,1.50
2023-08-12T13:35:38.161Z,1.70
2023-08-12T13:38:41.202Z,1.90
2023-08-12T13:41:44.759Z,1.80
2023-08-12T13:44:47.757Z,1.60
2023-08-12T13:47:52.768Z,1.80
2023-08-12T13:50:56.744Z,1.80
2023-08-12T13:54:00.835Z,1.50
2023-08-12T13:57:04.274Z,1.80
2023-08-12T14:00:10.918Z,1.70
2023-08-12T14:03:19.938Z,2.00
2023-08-12T14:06:22.999Z,1.80
2023-08-12T14:09:25.923Z,1.80
2023-08-12T14:12:29.160Z,1.80
2023-08-12T14:15:32.215Z,2.00
2023-08-12T14:18:35.409Z,1.70
2023-08-12T14:21:38.333Z,1.50
2023-08-12T14:24:41.530Z,1.90
2023-08-12T14:27:44.489Z,1.70
2023-08-12T14:30:47.968Z,1.50
2023-08-12T14:33:51.095Z,1.60
2023-08-12T14:36:54.058Z,1.80
2023-08-12T14:39:57.200Z,1.50
2023-08-12T14:43:00.111Z,2.00
2023-08-12T14:46:03.318Z,1.70
2023-08-12T14:49:06.273Z,1.50
2023-08-12T14:52:20.274Z,1.50
2023-08-12T14:55:23.332Z,1.50
2023-08-12T14:58:26.249Z,1.40
2023-08-12T15:01:29.436Z,1.40
2023-08-12T15:04:33.861Z,1.40
2023-08-12T15:07:36.915Z,1.70
2023-08-12T15:10:39.903Z,1.60
2023-08-12T15:13:43.188Z,1.70
2023-08-12T15:16:46.143Z,1.60
2023-08-12T15:19:49.120Z,1.20
2023-08-12T15:22:52.036Z,1.50
2023-08-12T15:25:54.928Z,1.60
2023-08-12T15:28:57.905Z,1.40
2023-08-12T15:32:01.483Z,1.40
2023-08-12T15:35:04.769Z,1.60
2023-08-12T15:38:07.745Z,1.60
2023-08-12T15:41:15.474Z,1.50
2023-08-12T15:44:18.473Z,1.90
2023-08-12T15:47:21.497Z,1.70
2023-08-12T15:50:24.451Z,1.80
2023-08-12T15:53:27.400Z,1.80
2023-08-12T15:56:32.390Z,1.80
2023-08-12T15:59:37.137Z,1.80
2023-08-12T16:02:40.299Z,1.70
2023-08-12T16:05:43.662Z,1.50
2023-08-12T16:08:52.970Z,1.90
2023-08-12T16:12:04.066Z,1.40
2023-08-12T16:15:07.734Z,1.50
2023-08-12T16:18:10.892Z,1.60
2023-08-12T16:21:13.891Z,1.40
2023-08-12T16:24:16.973Z,1.30
2023-08-12T16:27:19.966Z,1.50
2023-08-12T16:30:23.204Z,1.60
2023-08-12T16:33:26.190Z,1.30
2023-08-12T16:36:29.200Z,1.50
2023-08-12T16:39:32.204Z,1.60
2023-08-12T16:42:35.450Z,1.70
2023-08-12T16:45:38.406Z,1.60
2023-08-12T16:48:41.415Z,1.30
2023-08-12T16:51:44.310Z,1.40
2023-08-12T16:54:47.331Z,1.50
2023-08-12T16:57:50.333Z,1.60
2023-08-12T17:00:53.704Z,1.90
2023-08-12T17:03:56.806Z,1.80
2023-08-12T17:06:59.794Z,2.10
2023-08-12T17:10:02.936Z,2.40
2023-08-12T17:13:06.114Z,2.40
2023-08-12T17:16:09.111Z,2.80
2023-08-12T17:19:12.119Z,3.90
2023-08-12T17:22:15.626Z,4.20
2023-08-12T17:25:18.732Z,4.70
2023-08-12T17:28:22.377Z,5.40
2023-08-12T17:31:25.305Z,5.70
2023-08-12T17:34:28.281Z,5.70
2023-08-12T17:37:36.667Z,6.00
2023-08-12T17:40:39.892Z,5.60
2023-08-12T17:43:47.954Z,5.40
2023-08-12T17:46:51.369Z,4.70
2023-08-12T17:49:57.096Z,4.10
2023-08-12T17:53:00.134Z,3.90
2023-08-12T17:56:04.477Z,3.60
2023-08-12T17:59:07.477Z,3.90
2023-08-12T18:02:13.327Z,4.40
2023-08-12T18:05:20.870Z,3.90
2023-08-12T18:08:24.299Z,3.80
2023-08-12T18:11:28.275Z,4.10
2023-08-12T18:14:31.252Z,4.90
2023-08-12T18:17:34.217Z,3.80
2023-08-12T18:20:37.209Z,3.70
2023-08-12T18:23:40.158Z,3.90
2023-08-12T18:26:43.141Z,3.70
2023-08-12T18:29:46.164Z,3.90
2023-08-12T18:32:49.157Z,3.00
2023-08-12T18:35:52.262Z,3.30
2023-08-12T18:38:55.187Z,3.50
2023-08-12T18:41:58.060Z,3.60
2023-08-12T18:45:01.009Z,3.50
2023-08-12T18:48:04.505Z,4.00
2023-08-12T18:51:07.550Z,4.20
2023-08-12T18:54:10.523Z,4.00
2023-08-12T18:57:13.510Z,4.20
2023-08-12T19:00:17.082Z,6.40
2023-08-12T19:03:20.074Z,8.60
2023-08-12T19:06:23.207Z,10.70
2023-08-12T19:09:26.851Z,11.50
2023-08-12T19:12:29.793Z,12.20
2023-08-12T19:15:32.776Z,14.50
2023-08-12T19:18:36.037Z,17.70
2023-08-12T19:21:39.540Z,20.70
2023-08-12T19:24:42.460Z,21.60
2023-08-12T19:27:45.365Z,22.50
2023-08-12T19:30:51.922Z,21.50
2023-08-12T19:33:54.933Z,11.40
2023-08-12T19:36:57.985Z,8.50
2023-08-12T19:40:00.891Z,7.40
2023-08-12T19:43:04.000Z,9.00
2023-08-12T19:46:07.533Z,7.20
2023-08-12T19:49:10.467Z,6.00
2023-08-12T19:52:13.647Z,6.00
2023-08-12T19:55:17.062Z,5.90
2023-08-12T19:58:20.662Z,5.90
2023-08-12T20:01:23.696Z,6.00
2023-08-12T20:04:26.849Z,6.30
2023-08-12T20:07:30.140Z,6.10
2023-08-12T20:10:33.240Z,5.70
2023-08-12T20:13:36.281Z,6.00
2023-08-12T20:16:39.321Z,6.50
2023-08-12T20:19:42.431Z,5.60
2023-08-12T20:23:03.417Z,5.90
2023-08-12T20:26:10.257Z,5.90
2023-08-12T20:29:13.217Z,5.70
2023-08-12T20:32:17.359Z,6.50
2023-08-12T20:35:20.349Z,6.00
2023-08-12T20:38:23.314Z,6.20
2023-08-12T20:41:26.233Z,6.80
2023-08-12T20:44:29.275Z,7.20
2023-08-12T20:47:32.270Z,6.90
2023-08-12T20:50:35.247Z,7.50
2023-08-12T20:53:38.452Z,6.90
2023-08-12T20:56:41.565Z,6.60
2023-08-12T20:59:47.346Z,6.80
2023-08-12T21:02:50.615Z,7.00
2023-08-12T21:05:53.691Z,7.60
2023-08-12T21:08:56.633Z,7.50
2023-08-12T21:11:59.948Z,7.00
2023-08-12T21:15:03.553Z,7.50
2023-08-12T21:18:06.588Z,6.60
2023-08-12T21:21:09.723Z,7.30
2023-08-12T21:24:12.782Z,6.70
2023-08-12T21:27:15.772Z,6.10
2023-08-12T21:30:20.072Z,6.00
2023-08-12T21:33:23.100Z,6.40
2023-08-12T21:36:26.159Z,5.50
2023-08-12T21:39:29.125Z,5.30
2023-08-12T21:42:32.098Z,5.50
2023-08-12T21:45:35.107Z,5.20
2023-08-12T21:48:38.072Z,5.50
2023-08-12T21:51:40.971Z,5.00
2023-08-12T21:54:44.551Z,5.20
2023-08-12T21:57:47.606Z,5.20
2023-08-12T22:00:50.687Z,5.50
2023-08-12T22:03:53.672Z,5.70
2023-08-12T22:06:56.669Z,6.20
2023-08-12T22:10:00.542Z,6.40
2023-08-12T22:13:03.928Z,6.70
2023-08-12T22:16:07.108Z,6.70
2023-08-12T22:19:10.314Z,6.80
2023-08-12T22:22:19.275Z,7.60
2023-08-12T22:25:23.229Z,6.80
2023-08-12T22:28:26.172Z,7.50
2023-08-12T22:31:29.269Z,6.90
2023-08-12T22:34:32.284Z,7.40
2023-08-12T22:37:35.331Z,7.40
2023-08-12T22:40:38.229Z,7.60
2023-08-12T22:43:41.218Z,7.50
2023-08-12T22:46:44.210Z,7.50
2023-08-12T22:49:47.555Z,8.40
2023-08-12T22:52:50.731Z,7.80
2023-08-12T22:55:53.689Z,8.00
2023-08-12T22:58:58.933Z,7.30
2023-08-12T23:02:02.038Z,7.00
2023-08-12T23:05:05.380Z,7.40
2023-08-12T23:08:08.624Z,7.10
2023-08-12T23:11:11.671Z,7.00
2023-08-12T23:14:14.889Z,6.60
2023-08-12T23:17:18.028Z,6.80
2023-08-12T23:20:21.177Z,6.40
2023-08-12T23:23:24.257Z,8.50
2023-08-12T23:26:27.201Z,7.30
2023-08-12T23:29:30.186Z,6.70
2023-08-12T23:32:33.204Z,5.90
2023-08-12T23:35:36.202Z,6.10
2023-08-12T23:38:39.085Z,5.60
2023-08-12T23:41:42.192Z,5.80
2023-08-12T23:44:45.072Z,5.00
2023-08-12T23:47:48.059Z,4.80
2023-08-12T23:50:52.004Z,4.60
2023-08-12T23:53:55.022Z,5.20
2023-08-12T23:56:59.692Z,4.90
